Página principal
METAR-TAF:

METAR-TAF

Aeroportos :

Bojnourd, Irão

latitude: 37-28N, longitude: 057-20E, altura: 1074 m

Observação actual do tempo

O boletim foi feito há 28 minutos, às 17:00 UTC
Vento 2 kt de sudoeste
Temperatura 27°C
Humidade 58%
Pressão 1010 hPa
Visibilidade 10 km ou mais
Poucas nuvensa uma altura de 4500 ft, Cumulonimbus.
Nuvens dispersasa uma altura de 9000 ft
Nuvens dispersasa uma altura de 17000 ft

METAR: OIMN 231700Z 22002KT 9999 FEW045CB SCT090 SCT170 27/18 Q1010

Hora: 21:58 (17:28 UTC)


TAF: em falta

Observações e previsões do tempo de mais de 4000 aeroportos (mensagens METAR e TAF).

As estações disponíveis são os pontos amarelos e vermelhos sobre o mapa.

Mova o rato sobre o mapa para ver o nome da estação.

Depois clique no ponto para visualizar as observações e previsões meteorológicas.

Para alterar o mapa : clique nos botões verdes com uma cruz preta para aumentar o zoom; no botão verde com uma pitada de zoom; ou nas setas verdes para mapas adjacentes.


METAR-TAF: